Time;durP1;ratioP1;P1;durP2;ratioP2;P2;SDS_P1;SDS_P2;PMS_P1;PMS_P2;Temp;Humidity;BMP_temperature;BMP_pressure;BME280_temperature;BME280_humidity;BME280_pressure;Samples;Min_cycle;Max_cycle;Signal;HPM_P1;HPM_P2
2022/08/07 00:01:26;;;;;;;7.28;5.22;;;14.10;99.90;;;;;;5076479;28;20048;-84
2022/08/07 00:03:52;;;;;;;6.45;5.60;;;14.00;99.90;;;;;;5076342;28;20047;-84
2022/08/07 00:06:18;;;;;;;7.22;5.00;;;14.00;99.90;;;;;;5092905;28;20127;-84
2022/08/07 00:08:44;;;;;;;6.30;5.00;;;;;;;;;;5076347;28;20043;-83
2022/08/07 00:11:09;;;;;;;5.85;4.75;;;13.90;99.90;;;;;;5092759;28;20047;-84
2022/08/07 00:13:39;;;;;;;6.38;5.25;;;13.90;99.90;;;;;;5094115;28;20040;-83
2022/08/07 00:16:04;;;;;;;6.28;4.80;;;13.80;99.90;;;;;;5076095;28;20044;-84
2022/08/07 00:18:31;;;;;;;6.70;5.17;;;13.80;99.90;;;;;;5076076;28;20499;-83
2022/08/07 00:21:04;;;;;;;5.78;5.07;;;13.80;99.90;;;;;;5093731;28;20032;-85
2022/08/07 00:23:31;;;;;;;5.53;4.65;;;13.70;99.90;;;;;;5092590;28;20605;-84
2022/08/07 00:25:58;;;;;;;7.82;5.05;;;13.70;99.90;;;;;;5092275;28;20056;-84
2022/08/07 00:28:24;;;;;;;6.85;5.53;;;13.60;99.90;;;;;;5076064;28;20093;-85
2022/08/07 00:30:49;;;;;;;7.33;5.47;;;13.70;99.90;;;;;;5075809;28;20044;-83
2022/08/07 00:33:15;;;;;;;9.45;6.13;;;13.60;99.90;;;;;;5092777;28;20040;-84
2022/08/07 00:35:41;;;;;;;6.70;5.50;;;13.50;99.90;;;;;;5092727;28;20510;-83
2022/08/07 00:38:06;;;;;;;6.82;5.82;;;13.50;99.90;;;;;;5076124;28;20048;-84
2022/08/07 00:40:32;;;;;;;7.20;5.30;;;13.50;99.90;;;;;;5092718;28;20052;-84
2022/08/07 00:42:58;;;;;;;7.47;5.65;;;13.50;99.90;;;;;;5075761;28;20387;-84
2022/08/07 00:45:23;;;;;;;6.57;5.53;;;13.70;99.90;;;;;;5075797;28;20044;-84
2022/08/07 00:47:49;;;;;;;8.00;5.65;;;13.40;99.90;;;;;;5075696;28;20082;-83
2022/08/07 00:50:16;;;;;;;6.30;5.03;;;13.30;99.90;;;;;;5093160;28;20047;-84
2022/08/07 00:52:42;;;;;;;9.52;6.07;;;13.40;99.90;;;;;;5093156;28;20401;-84
2022/08/07 00:55:08;;;;;;;8.83;6.17;;;13.30;99.90;;;;;;5092380;28;20076;-83
2022/08/07 00:57:34;;;;;;;6.10;5.22;;;13.20;99.90;;;;;;5092403;28;20048;-83
2022/08/07 00:59:59;;;;;;;8.27;5.78;;;13.20;99.90;;;;;;5092356;28;20456;-83
2022/08/07 01:02:25;;;;;;;7.90;6.27;;;13.20;99.90;;;;;;5075677;28;20040;-83
2022/08/07 01:04:51;;;;;;;11.35;5.65;;;13.20;99.90;;;;;;5075278;28;20113;-85
2022/08/07 01:07:20;;;;;;;7.28;6.03;;;13.10;99.90;;;;;;5092513;28;20048;-85
2022/08/07 01:09:46;;;;;;;8.70;6.47;;;13.10;99.90;;;;;;5092168;28;20044;-84
2022/08/07 01:12:13;;;;;;;6.60;5.63;;;13.10;99.90;;;;;;5093426;28;20087;-84
2022/08/07 01:14:39;;;;;;;7.13;5.47;;;13.00;99.90;;;;;;5093495;28;20044;-85
2022/08/07 01:17:05;;;;;;;7.13;6.10;;;13.00;99.90;;;;;;5092272;28;20042;-85
2022/08/07 01:19:32;;;;;;;8.68;5.93;;;13.00;99.90;;;;;;5092309;28;20040;-85
2022/08/07 01:21:58;;;;;;;7.82;6.03;;;13.00;99.90;;;;;;5091983;28;20403;-84
2022/08/07 01:24:25;;;;;;;7.47;5.60;;;12.90;99.90;;;;;;5096094;28;20131;-85
2022/08/07 01:26:53;;;;;;;6.65;5.70;;;12.90;99.90;;;;;;5096108;28;20278;-84
2022/08/07 01:29:23;;;;;;;7.68;5.90;;;12.90;99.90;;;;;;5096185;28;20629;-84
2022/08/07 01:31:49;;;;;;;7.85;5.63;;;12.90;99.90;;;;;;5095995;28;20047;-84
2022/08/07 01:34:16;;;;;;;8.15;6.28;;;12.80;99.90;;;;;;5096082;28;20040;-83
2022/08/07 01:36:43;;;;;;;6.82;6.10;;;13.00;99.90;;;;;;5096209;28;20036;-83
2022/08/07 01:39:08;;;;;;;9.65;5.65;;;12.80;99.90;;;;;;5095910;28;20055;-84
2022/08/07 01:41:34;;;;;;;6.47;5.88;;;12.70;99.90;;;;;;5095639;28;20484;-84
2022/08/07 01:44:02;;;;;;;6.50;5.63;;;12.70;99.90;;;;;;5079140;28;20052;-84
2022/08/07 01:46:27;;;;;;;6.70;5.75;;;12.70;99.90;;;;;;5095556;28;20043;-84
2022/08/07 01:48:53;;;;;;;7.75;5.35;;;13.00;99.90;;;;;;5095642;28;20089;-83
2022/08/07 01:51:23;;;;;;;6.07;5.07;;;12.60;99.90;;;;;;5095451;28;20055;-84
2022/08/07 01:53:51;;;;;;;6.97;5.50;;;12.60;99.90;;;;;;5095547;28;20131;-83
2022/08/07 01:56:26;;;;;;;7.68;5.82;;;12.50;99.90;;;;;;5095431;28;20047;-84
2022/08/07 01:58:58;;;;;;;7.32;5.40;;;12.50;99.90;;;;;;5095666;28;20044;-85
2022/08/07 02:01:29;;;;;;;7.57;5.35;;;12.50;99.90;;;;;;5095661;28;20040;-85
2022/08/07 02:04:17;;;;;;;6.40;5.80;;;12.80;99.90;;;;;;5096538;28;20043;-84
2022/08/07 02:06:44;;;;;;;7.05;5.47;;;12.50;99.90;;;;;;5096306;28;20126;-83
2022/08/07 02:09:13;;;;;;;;;;;12.50;99.90;;;;;;5095533;28;20048;-84
2022/08/07 02:11:42;;;;;;;6.70;5.57;;;12.50;99.90;;;;;;5095200;28;20359;-85
2022/08/07 02:14:09;;;;;;;8.65;6.22;;;12.50;99.90;;;;;;5078758;28;20147;-85
2022/08/07 02:16:37;;;;;;;7.90;6.30;;;12.50;99.90;;;;;;5095023;28;20056;-83
2022/08/07 02:19:05;;;;;;;7.10;6.07;;;12.50;99.90;;;;;;5095351;28;20055;-83
2022/08/07 02:21:33;;;;;;;6.60;5.38;;;12.60;99.90;;;;;;5077754;28;20044;-83
2022/08/07 02:23:59;;;;;;;8.05;6.13;;;12.60;99.90;;;;;;5096060;28;20044;-82
2022/08/07 02:26:26;;;;;;;8.13;6.30;;;12.50;99.90;;;;;;5094906;28;20055;-84
2022/08/07 02:28:54;;;;;;;7.35;6.43;;;12.50;99.90;;;;;;5112289;28;20281;-84
2022/08/07 02:31:22;;;;;;;7.25;6.05;;;12.50;99.90;;;;;;5095979;28;20048;-84
2022/08/07 02:33:49;;;;;;;7.82;5.68;;;12.50;99.90;;;;;;5094631;28;20521;-83
2022/08/07 02:36:16;;;;;;;6.93;5.78;;;12.50;99.90;;;;;;5094673;28;20044;-83
2022/08/07 02:38:43;;;;;;;6.43;5.32;;;12.50;99.90;;;;;;5094748;28;20113;-86
2022/08/07 02:41:09;;;;;;;;;;;12.40;99.90;;;;;;5077901;28;20408;-85
2022/08/07 02:43:37;;;;;;;7.22;5.65;;;12.40;99.90;;;;;;5095920;28;19920;-84
2022/08/07 02:46:04;;;;;;;8.43;6.03;;;12.30;99.90;;;;;;5095647;28;20403;-84
2022/08/07 02:48:30;;;;;;;;;;;12.30;99.90;;;;;;5078179;28;20143;-84
2022/08/07 02:50:58;;;;;;;6.88;5.55;;;12.30;99.90;;;;;;5094550;28;19942;-85
2022/08/07 02:53:29;;;;;;;7.95;5.90;;;12.20;99.90;;;;;;5094417;28;20127;-84
2022/08/07 02:55:58;;;;;;;8.00;6.35;;;12.10;99.90;;;;;;5094720;28;20101;-84
2022/08/07 02:58:25;;;;;;;7.20;5.63;;;12.10;99.90;;;;;;5094520;28;20087;-83
2022/08/07 03:00:54;;;;;;;7.18;6.20;;;12.10;99.90;;;;;;5094081;28;20040;-84
2022/08/07 03:03:22;;;;;;;7.72;6.47;;;12.10;99.90;;;;;;5095280;28;20048;-84
2022/08/07 03:05:53;;;;;;;8.43;7.00;;;12.00;99.90;;;;;;5095293;28;20047;-83
2022/08/07 03:08:20;;;;;;;8.32;7.03;;;12.00;99.90;;;;;;5095169;28;20044;-84
2022/08/07 03:10:47;;;;;;;9.80;7.13;;;12.00;99.90;;;;;;5094648;28;20063;-84
2022/08/07 03:13:14;;;;;;;8.98;7.47;;;12.00;99.90;;;;;;5095091;28;20099;-85
2022/08/07 03:15:41;;;;;;;8.75;7.07;;;12.00;99.90;;;;;;5094133;28;20092;-84
2022/08/07 03:18:07;;;;;;;8.55;6.82;;;11.90;99.90;;;;;;5093879;28;20048;-85
2022/08/07 03:20:34;;;;;;;8.57;7.47;;;11.90;99.90;;;;;;5093770;28;20047;-85
2022/08/07 03:23:01;;;;;;;8.90;7.20;;;11.90;99.90;;;;;;5077709;28;20046;-85
2022/08/07 03:25:28;;;;;;;9.85;7.05;;;11.90;99.90;;;;;;5077521;28;20055;-84
2022/08/07 03:27:54;;;;;;;;;;;11.90;99.90;;;;;;5077014;28;20052;-83
2022/08/07 03:30:21;;;;;;;9.27;6.82;;;11.90;99.90;;;;;;5076960;28;20412;-84
2022/08/07 03:32:48;;;;;;;9.02;6.63;;;11.80;99.90;;;;;;5093915;28;20098;-83
2022/08/07 03:35:20;;;;;;;8.07;6.47;;;11.80;99.90;;;;;;5076737;28;20044;-84
2022/08/07 03:37:52;;;;;;;9.05;6.78;;;11.70;99.90;;;;;;5094681;28;20047;-85
2022/08/07 03:40:19;;;;;;;7.72;6.20;;;11.80;99.90;;;;;;5076286;28;20055;-84
2022/08/07 03:42:45;;;;;;;10.55;7.43;;;11.70;99.90;;;;;;5093845;28;20036;-85
2022/08/07 03:45:11;;;;;;;10.88;6.13;;;11.70;99.90;;;;;;5075893;28;20086;-85
2022/08/07 03:47:37;;;;;;;9.18;6.72;;;11.70;99.90;;;;;;5094464;28;20054;-84
2022/08/07 03:50:04;;;;;;;6.85;5.88;;;11.70;99.90;;;;;;5093297;28;20040;-82
2022/08/07 03:52:31;;;;;;;9.55;6.55;;;11.60;99.90;;;;;;5094315;28;20048;-83
2022/08/07 03:54:58;;;;;;;7.03;6.32;;;11.60;99.90;;;;;;5093363;28;20048;-81
2022/08/07 03:57:28;;;;;;;6.57;5.80;;;11.60;99.90;;;;;;5094146;28;20040;-84
2022/08/07 03:59:54;;;;;;;8.63;6.32;;;11.60;99.90;;;;;;5093025;28;20133;-83
2022/08/07 04:02:21;;;;;;;7.07;5.70;;;11.50;99.90;;;;;;5093242;28;20073;-84
2022/08/07 04:04:47;;;;;;;;;;;11.50;99.90;;;;;;5093591;28;20134;-83
2022/08/07 04:07:18;;;;;;;7.55;6.05;;;11.50;99.90;;;;;;5076191;28;20378;-84
2022/08/07 04:09:46;;;;;;;6.95;5.40;;;11.50;99.90;;;;;;5093851;28;20058;-84
2022/08/07 04:12:13;;;;;;;9.10;6.63;;;11.50;99.90;;;;;;5076160;28;20040;-85
2022/08/07 04:14:40;;;;;;;8.05;6.15;;;11.50;99.90;;;;;;5093167;28;20116;-84
2022/08/07 04:17:06;;;;;;;8.70;6.20;;;11.40;99.90;;;;;;5092868;28;20130;-84
2022/08/07 04:19:32;;;;;;;8.65;6.50;;;11.40;99.90;;;;;;5093070;28;20140;-83
2022/08/07 04:21:58;;;;;;;8.60;5.80;;;11.40;99.90;;;;;;5093106;28;20036;-83
2022/08/07 04:24:25;;;;;;;8.57;7.05;;;11.40;99.90;;;;;;5075802;28;20058;-86
2022/08/07 04:26:51;;;;;;;8.55;5.93;;;11.40;99.90;;;;;;5075730;28;20048;-84
2022/08/07 04:29:16;;;;;;;8.38;5.55;;;11.40;99.90;;;;;;5092919;28;20093;-83
2022/08/07 04:31:42;;;;;;;8.32;6.43;;;11.40;99.90;;;;;;5092744;28;20036;-84
2022/08/07 04:34:08;;;;;;;8.85;6.20;;;11.40;99.90;;;;;;5076026;28;20050;-84
2022/08/07 04:36:34;;;;;;;9.70;6.32;;;11.40;99.90;;;;;;5093642;28;20102;-84
2022/08/07 04:39:01;;;;;;;10.97;7.03;;;11.40;99.90;;;;;;5092558;28;20488;-84
2022/08/07 04:41:27;;;;;;;7.47;6.35;;;11.40;99.90;;;;;;5093258;28;20473;-83
2022/08/07 04:43:54;;;;;;;8.50;6.30;;;11.50;99.90;;;;;;5092580;28;20101;-84
2022/08/07 04:46:54;;;;;;;7.78;5.43;;;11.50;99.90;;;;;;5075684;28;20143;-85
2022/08/07 04:49:44;;;;;;;9.07;6.65;;;11.40;99.90;;;;;;5092433;28;20060;-83
2022/08/07 04:52:30;;;;;;;10.63;6.43;;;11.50;99.90;;;;;;5075932;28;20480;-85
2022/08/07 04:55:29;;;;;;;10.93;6.50;;;11.50;99.90;;;;;;5091959;28;20056;-85
2022/08/07 04:58:18;;;;;;;;;;;11.50;99.90;;;;;;5079120;28;20044;-84
2022/08/07 05:01:13;;;;;;;8.20;6.07;;;11.60;99.90;;;;;;5059090;28;19928;-84
2022/08/07 05:04:01;;;;;;;9.40;6.22;;;11.60;99.90;;;;;;5079832;28;20048;-83
2022/08/07 05:06:36;;;;;;;9.80;6.15;;;11.70;99.90;;;;;;5096981;28;20374;-84
2022/08/07 05:09:39;;;;;;;9.40;6.97;;;11.70;99.90;;;;;;5096767;28;20040;-85
2022/08/07 05:12:09;;;;;;;8.02;5.93;;;11.70;99.90;;;;;;5064950;28;20048;-84
2022/08/07 05:14:46;;;;;;;9.55;7.60;;;11.80;99.90;;;;;;5079563;28;20040;-85
2022/08/07 05:17:17;;;;;;;10.38;7.70;;;11.80;99.90;;;;;;5096495;28;20125;-84
2022/08/07 05:19:50;;;;;;;8.10;6.75;;;11.80;99.90;;;;;;5079538;28;20040;-85
2022/08/07 05:22:19;;;;;;;9.00;7.05;;;11.90;99.90;;;;;;5097757;28;20051;-83
2022/08/07 05:24:46;;;;;;;8.63;7.07;;;12.00;99.90;;;;;;5096455;28;20040;-85
2022/08/07 05:27:14;;;;;;;8.88;7.75;;;12.10;99.90;;;;;;5097522;28;20048;-84
2022/08/07 05:29:42;;;;;;;9.30;7.63;;;12.10;99.90;;;;;;5079377;28;20050;-83
2022/08/07 05:32:10;;;;;;;10.27;7.93;;;12.20;99.90;;;;;;5113122;28;20089;-85
2022/08/07 05:34:36;;;;;;;10.27;7.70;;;12.30;99.90;;;;;;5078804;28;20097;-84
2022/08/07 05:37:03;;;;;;;8.63;7.45;;;12.30;99.90;;;;;;5096787;28;20554;-82
2022/08/07 05:39:29;;;;;;;10.15;7.18;;;12.30;99.90;;;;;;5095987;28;20036;-85
2022/08/07 05:41:55;;;;;;;12.38;8.63;;;12.40;99.90;;;;;;5078722;28;20395;-83
2022/08/07 05:44:21;;;;;;;10.63;7.87;;;12.40;99.90;;;;;;5095965;28;20036;-83
2022/08/07 05:46:49;;;;;;;10.17;7.70;;;12.50;99.90;;;;;;5078980;28;20100;-83
2022/08/07 05:49:15;;;;;;;10.68;8.32;;;12.50;99.90;;;;;;5095538;28;20332;-82
2022/08/07 05:51:42;;;;;;;10.60;7.60;;;12.60;99.90;;;;;;5078821;28;20048;-82
2022/08/07 05:54:09;;;;;;;10.50;8.50;;;12.60;99.90;;;;;;5078762;28;20486;-82
2022/08/07 05:56:36;;;;;;;12.93;10.88;;;12.70;99.90;;;;;;5096097;28;20047;-84
2022/08/07 05:59:05;;;;;;;13.68;10.60;;;12.80;99.90;;;;;;5078355;28;20040;-84
2022/08/07 06:01:32;;;;;;;11.75;9.55;;;12.90;99.90;;;;;;5112293;28;20044;-84
2022/08/07 06:03:59;;;;;;;13.10;10.00;;;13.10;99.90;;;;;;5096564;28;20040;-84
2022/08/07 06:06:25;;;;;;;;;;;13.20;99.90;;;;;;5095416;28;20549;-82
2022/08/07 06:08:52;;;;;;;18.25;10.25;;;13.40;99.90;;;;;;5094743;28;19927;-84
2022/08/07 06:11:18;;;;;;;13.70;9.85;;;13.60;99.90;;;;;;5078606;28;20426;-84
2022/08/07 06:13:44;;;;;;;11.43;9.38;;;13.80;99.90;;;;;;5078431;28;20091;-84
2022/08/07 06:16:09;;;;;;;11.68;9.77;;;14.00;99.90;;;;;;5096330;28;20044;-83
2022/08/07 06:18:36;;;;;;;11.95;9.63;;;14.30;99.90;;;;;;5078604;28;20051;-83
2022/08/07 06:21:03;;;;;;;11.07;9.15;;;14.50;99.90;;;;;;5095515;28;20048;-79
2022/08/07 06:23:30;;;;;;;12.50;9.20;;;14.60;99.90;;;;;;5096141;28;20044;-80
2022/08/07 06:25:56;;;;;;;10.88;8.18;;;14.80;99.90;;;;;;5094856;28;20370;-81
2022/08/07 06:28:22;;;;;;;10.05;8.27;;;15.00;99.90;;;;;;5096029;28;20044;-80
2022/08/07 06:30:47;;;;;;;10.02;7.80;;;15.10;99.90;;;;;;5096033;28;20044;-80
2022/08/07 06:33:13;;;;;;;8.35;7.45;;;15.50;99.90;;;;;;5094871;28;20047;-82
2022/08/07 06:35:39;;;;;;;11.63;9.02;;;15.60;99.90;;;;;;5078049;28;20047;-81
2022/08/07 06:38:05;;;;;;;9.93;7.67;;;15.80;99.90;;;;;;5094531;28;20446;-82
2022/08/07 06:40:44;;;;;;;10.38;7.85;;;16.10;99.90;;;;;;5095568;28;20173;-83
2022/08/07 06:43:11;;;;;;;11.18;8.10;;;16.20;99.90;;;;;;5095696;28;20082;-83
2022/08/07 06:45:37;;;;;;;;;;;16.40;99.90;;;;;;5094718;28;20051;-83
2022/08/07 06:48:05;;;;;;;8.63;7.72;;;16.60;99.90;;;;;;5095531;28;20356;-81
2022/08/07 06:50:33;;;;;;;10.77;6.68;;;16.70;99.90;;;;;;5095437;28;20047;-82
2022/08/07 06:53:00;;;;;;;8.07;6.88;;;16.90;99.90;;;;;;5094577;28;20079;-81
2022/08/07 06:55:29;;;;;;;10.38;6.75;;;17.10;99.90;;;;;;5095281;28;20048;-81
2022/08/07 06:58:03;;;;;;;7.70;6.60;;;17.20;99.90;;;;;;5095299;28;20442;-79
2022/08/07 07:00:33;;;;;;;7.90;6.90;;;17.50;99.90;;;;;;5094563;28;20487;-79
2022/08/07 07:03:00;;;;;;;9.10;6.60;;;17.50;99.90;;;;;;5095272;28;20046;-78
2022/08/07 07:05:26;;;;;;;9.43;6.60;;;17.70;99.90;;;;;;5095185;28;20073;-77
2022/08/07 07:07:51;;;;;;;7.83;6.73;;;17.70;99.90;;;;;;5094863;28;20040;-78
2022/08/07 07:10:27;;;;;;;7.07;5.70;;;17.90;99.90;;;;;;5095054;28;20044;-78
2022/08/07 07:12:58;;;;;;;7.57;6.32;;;18.00;99.90;;;;;;5094981;28;20127;-82
2022/08/07 07:15:28;;;;;;;9.45;6.35;;;18.10;99.90;;;;;;5095066;28;20044;-80
2022/08/07 07:18:08;;;;;;;7.10;6.30;;;18.10;99.90;;;;;;5094377;28;20423;-80
2022/08/07 07:20:46;;;;;;;7.25;6.15;;;18.30;99.90;;;;;;5092786;28;20048;-77
2022/08/07 07:23:12;;;;;;;8.30;6.28;;;18.50;99.90;;;;;;5094881;28;20047;-80
2022/08/07 07:25:40;;;;;;;7.78;6.05;;;18.70;99.90;;;;;;5094834;28;20131;-77
2022/08/07 07:28:13;;;;;;;7.78;6.15;;;18.70;99.90;;;;;;5095186;28;20460;-82
2022/08/07 07:30:44;;;;;;;9.25;6.60;;;18.70;99.90;;;;;;5094838;28;20488;-79
2022/08/07 07:33:12;;;;;;;8.00;5.80;;;18.80;99.90;;;;;;5094669;28;20048;-80
2022/08/07 07:35:42;;;;;;;6.70;5.95;;;18.80;99.90;;;;;;5093255;28;20048;-81
2022/08/07 07:38:08;;;;;;;7.20;6.00;;;18.80;99.90;;;;;;5091878;28;20047;-82
2022/08/07 07:40:37;;;;;;;6.70;5.53;;;18.90;99.90;;;;;;5093360;28;20056;-82
2022/08/07 07:43:04;;;;;;;7.07;5.90;;;19.00;99.90;;;;;;5075336;28;20153;-81
2022/08/07 07:45:30;;;;;;;;;;;19.10;99.90;;;;;;5093881;28;20048;-82
2022/08/07 07:47:58;;;;;;;6.60;5.90;;;19.20;99.90;;;;;;5093463;28;19963;-81
2022/08/07 07:50:26;;;;;;;6.88;5.63;;;19.20;99.90;;;;;;5094271;28;20052;-82
2022/08/07 07:52:52;;;;;;;5.90;5.03;;;19.30;99.90;;;;;;5093561;28;20040;-81
2022/08/07 07:55:19;;;;;;;6.50;5.40;;;19.50;99.90;;;;;;5076918;28;20396;-82
2022/08/07 07:57:48;;;;;;;8.65;5.88;;;19.50;99.90;;;;;;5094206;28;20098;-81
2022/08/07 08:00:15;;;;;;;6.15;5.10;;;19.60;99.90;;;;;;5093097;28;20055;-81
2022/08/07 08:02:43;;;;;;;7.18;5.38;;;19.60;99.90;;;;;;5093140;28;20044;-82
2022/08/07 08:05:10;;;;;;;7.63;5.60;;;19.70;99.90;;;;;;5093372;28;20329;-81
2022/08/07 08:07:38;;;;;;;7.55;5.30;;;19.70;99.90;;;;;;5076896;28;20048;-87
2022/08/07 08:10:06;;;;;;;7.78;5.28;;;19.80;99.90;;;;;;5093296;28;20551;-90
2022/08/07 08:12:33;;;;;;;7.10;5.65;;;19.80;99.90;;;;;;5076443;28;20048;-82
2022/08/07 08:14:59;;;;;;;;;;;19.90;99.90;;;;;;5094302;28;20092;-87
2022/08/07 08:17:26;;;;;;;7.45;4.78;;;20.00;99.90;;;;;;5093265;28;20020;-83
2022/08/07 08:19:55;;;;;;;9.07;5.95;;;20.10;99.90;;;;;;5093283;28;20040;-83
2022/08/07 08:27:55;;;;;;;6.43;5.20;;;20.30;99.90;;;;;;5092606;28;20052;-81
2022/08/07 08:30:21;;;;;;;7.13;5.38;;;20.40;99.90;;;;;;5093764;28;20495;-82
2022/08/07 08:32:51;;;;;;;;;;;20.50;99.90;;;;;;5075990;28;20036;-81
2022/08/07 08:35:21;;;;;;;6.35;4.72;;;20.50;99.30;;;;;;5093531;28;20425;-81
2022/08/07 08:37:50;;;;;;;6.75;5.55;;;20.60;99.90;;;;;;5093657;28;20465;-82
2022/08/07 08:40:25;;;;;;;5.78;5.13;;;20.60;99.90;;;;;;5092511;28;20074;-82
2022/08/07 08:42:53;;;;;;;8.65;5.43;;;20.70;99.40;;;;;;5093575;28;20484;-82
2022/08/07 08:45:22;;;;;;;6.97;4.88;;;20.90;99.50;;;;;;5092574;28;20102;-82
2022/08/07 08:48:16;;;;;;;7.60;5.13;;;20.90;99.60;;;;;;5093742;28;20062;-82
2022/08/07 08:50:57;;;;;;;6.85;4.93;;;20.90;98.90;;;;;;5093674;28;20044;-82
2022/08/07 08:53:53;;;;;;;5.75;4.72;;;21.00;98.60;;;;;;5092732;28;20051;-82
2022/08/07 08:56:23;;;;;;;4.93;4.43;;;21.10;98.10;;;;;;5092744;28;20040;-82
2022/08/07 08:58:52;;;;;;;4.75;4.25;;;21.10;98.80;;;;;;5092445;28;20134;-81
2022/08/07 09:01:42;;;;;;;6.63;4.70;;;21.20;98.70;;;;;;5092086;28;20539;-81
2022/08/07 09:04:28;;;;;;;6.80;4.70;;;21.20;98.20;;;;;;5075350;28;20040;-81
2022/08/07 09:07:23;;;;;;;5.32;4.82;;;21.30;97.40;;;;;;5093377;28;20043;-81
2022/08/07 09:10:15;;;;;;;6.68;4.88;;;21.30;97.30;;;;;;5093775;28;20055;-81
2022/08/07 09:13:05;;;;;;;5.20;4.60;;;21.30;97.40;;;;;;5075623;28;20047;-82
2022/08/07 09:15:31;;;;;;;6.07;4.93;;;21.40;97.30;;;;;;5092005;28;20047;-81
2022/08/07 09:18:18;;;;;;;7.03;4.20;;;21.50;97.50;;;;;;5092297;28;20051;-82
2022/08/07 09:21:08;;;;;;;4.83;4.10;;;21.60;98.00;;;;;;5093830;28;20436;-83
2022/08/07 09:24:02;;;;;;;5.25;4.20;;;21.70;96.80;;;;;;5092372;28;20048;-81
2022/08/07 09:27:04;;;;;;;7.35;4.25;;;21.80;96.10;;;;;;5093050;28;20484;-81
2022/08/07 09:29:51;;;;;;;4.93;3.85;;;21.90;96.80;;;;;;5068562;28;20052;-81
2022/08/07 09:32:54;;;;;;;4.78;3.72;;;22.10;96.80;;;;;;5092746;28;20387;-81
2022/08/07 09:36:11;;;;;;;4.85;3.78;;;22.30;95.90;;;;;;5092315;28;20056;-81
2022/08/07 09:38:57;;;;;;;5.60;3.58;;;22.40;95.70;;;;;;5066980;28;20063;-82
2022/08/07 09:41:34;;;;;;;3.70;3.05;;;22.40;95.40;;;;;;5092904;28;20098;-82
2022/08/07 09:44:12;;;;;;;4.63;3.60;;;22.50;95.10;;;;;;5093324;28;20087;-82
2022/08/07 09:47:02;;;;;;;5.28;4.05;;;22.50;95.40;;;;;;5096187;28;20496;-81
2022/08/07 09:50:00;;;;;;;5.07;3.67;;;22.60;94.50;;;;;;5096655;28;20048;-83
2022/08/07 09:52:43;;;;;;;6.30;3.72;;;22.70;94.90;;;;;;5080965;28;20090;-80
2022/08/07 09:55:17;;;;;;;6.00;3.90;;;22.80;94.80;;;;;;5095482;28;20048;-84
2022/08/07 09:58:17;;;;;;;4.20;3.80;;;22.90;94.80;;;;;;5095691;28;20048;-85
2022/08/07 10:01:24;;;;;;;4.32;3.42;;;23.00;94.10;;;;;;5095205;28;20131;-77
2022/08/07 10:04:27;;;;;;;5.38;3.85;;;23.20;94.00;;;;;;5094952;28;20382;-78
2022/08/07 10:07:24;;;;;;;2.90;2.10;;;23.10;93.70;;;;;;5095927;28;20036;-81
2022/08/07 10:10:00;;;;;;;3.50;2.22;;;23.00;92.10;;;;;;5083797;28;20099;-82
2022/08/07 10:12:53;;;;;;;4.10;2.22;;;23.10;92.70;;;;;;5095343;28;20398;-83
2022/08/07 10:15:48;;;;;;;3.80;2.25;;;23.10;92.60;;;;;;5096195;28;20194;-82
2022/08/07 10:18:34;;;;;;;3.88;2.30;;;23.40;92.70;;;;;;5096193;28;20048;-82
2022/08/07 10:21:05;;;;;;;3.83;2.60;;;23.60;91.40;;;;;;5095992;28;20141;-81
2022/08/07 10:23:55;;;;;;;4.13;2.72;;;23.70;92.20;;;;;;5095598;28;20052;-82
2022/08/07 10:26:50;;;;;;;6.47;2.70;;;23.90;92.30;;;;;;5096310;28;20081;-80
2022/08/07 10:29:28;;;;;;;4.75;3.05;;;23.90;91.50;;;;;;5094772;28;20059;-80
2022/08/07 10:32:27;;;;;;;3.20;2.67;;;23.90;91.00;;;;;;5078008;28;20044;-79
2022/08/07 10:35:11;;;;;;;3.47;2.42;;;24.00;91.90;;;;;;5095853;28;20051;-84
2022/08/07 10:37:52;;;;;;;5.00;2.38;;;24.00;91.60;;;;;;5096228;28;20051;-82
2022/08/07 10:40:28;;;;;;;4.15;2.47;;;24.10;91.40;;;;;;5094483;28;20048;-83
2022/08/07 10:43:16;;;;;;;3.95;2.83;;;24.20;90.80;;;;;;5095885;28;20102;-84
2022/08/07 10:45:48;;;;;;;4.82;2.47;;;24.20;91.40;;;;;;5094721;28;20044;-80
2022/08/07 10:48:34;;;;;;;3.05;2.08;;;24.20;90.90;;;;;;5095341;28;20487;-81
2022/08/07 10:51:17;;;;;;;3.95;2.45;;;24.30;90.90;;;;;;5096036;28;20488;-83
2022/08/07 10:53:52;;;;;;;5.00;2.63;;;24.30;89.40;;;;;;5095439;28;20101;-79
2022/08/07 10:57:05;;;;;;;4.38;2.50;;;24.30;89.80;;;;;;5095130;28;20079;-80
2022/08/07 10:59:50;;;;;;;3.17;2.30;;;24.40;90.30;;;;;;5094509;28;20047;-80
2022/08/07 11:02:53;;;;;;;4.45;2.70;;;24.40;90.00;;;;;;5099276;28;20439;-82
2022/08/07 11:05:41;;;;;;;3.55;2.40;;;24.10;88.60;;;;;;5096416;28;20135;-79
2022/08/07 11:08:16;;;;;;;3.80;2.58;;;24.20;89.90;;;;;;5094045;28;20111;-80
2022/08/07 11:10:54;;;;;;;3.38;2.50;;;24.00;89.90;;;;;;5094045;28;20050;-80
2022/08/07 11:13:41;;;;;;;3.47;2.28;;;24.10;90.00;;;;;;5095436;28;20126;-80
2022/08/07 11:16:16;;;;;;;3.17;2.10;;;24.20;89.00;;;;;;5093961;28;20427;-80
2022/08/07 11:18:48;;;;;;;2.83;1.95;;;24.20;87.60;;;;;;5094292;28;20044;-77
2022/08/07 11:21:42;;;;;;;5.15;1.98;;;24.20;89.40;;;;;;5093987;28;20036;-81
2022/08/07 11:24:20;;;;;;;2.80;2.10;;;24.40;88.30;;;;;;5086976;28;20056;-81
2022/08/07 11:27:10;;;;;;;2.75;2.05;;;24.50;85.90;;;;;;5095026;28;20126;-81
2022/08/07 11:29:56;;;;;;;4.35;1.95;;;24.60;87.60;;;;;;5094794;28;20044;-82
2022/08/07 11:32:44;;;;;;;2.72;2.20;;;24.70;88.40;;;;;;5093976;28;20040;-82
2022/08/07 11:35:24;;;;;;;4.40;2.40;;;24.80;88.70;;;;;;5094703;28;20532;-82
2022/08/07 11:38:21;;;;;;;3.95;2.20;;;25.00;88.70;;;;;;5094728;28;20434;-82
2022/08/07 11:41:01;;;;;;;2.92;2.13;;;25.00;88.60;;;;;;5076274;28;20476;-82
2022/08/07 11:43:30;;;;;;;3.45;2.00;;;25.00;88.60;;;;;;5094611;28;20055;-80
2022/08/07 11:46:29;;;;;;;2.63;1.92;;;25.00;86.80;;;;;;5077552;28;20108;-80
2022/08/07 11:49:07;;;;;;;2.63;1.88;;;25.20;86.00;;;;;;5093619;28;20040;-82
2022/08/07 11:51:57;;;;;;;2.72;2.00;;;25.10;83.70;;;;;;5093569;28;20048;-82
2022/08/07 11:55:16;;;;;;;2.50;2.00;;;25.00;84.50;;;;;;5093138;28;20051;-81
2022/08/07 11:57:46;;;;;;;2.92;1.85;;;25.00;85.50;;;;;;5093339;28;20044;-79
2022/08/07 12:00:24;;;;;;;2.80;2.08;;;25.00;86.50;;;;;;5094344;28;20105;-78
2022/08/07 12:03:35;;;;;;;3.38;2.20;;;25.10;86.30;;;;;;5094232;28;20063;-82
2022/08/07 12:06:23;;;;;;;3.72;2.00;;;25.00;85.10;;;;;;5093763;28;20392;-80
2022/08/07 12:08:57;;;;;;;2.70;2.08;;;25.00;86.70;;;;;;5094023;28;20083;-79
2022/08/07 12:11:33;;;;;;;2.75;1.90;;;25.00;85.60;;;;;;5094125;28;20388;-81
2022/08/07 12:14:07;;;;;;;2.97;2.13;;;25.00;87.10;;;;;;5093266;28;20040;-81
2022/08/07 12:16:46;;;;;;;2.72;2.20;;;25.00;86.10;;;;;;5094406;28;20385;-80
2022/08/07 12:19:32;;;;;;;3.85;2.30;;;25.10;83.90;;;;;;5093180;28;20494;-78
2022/08/07 12:22:16;;;;;;;2.97;2.15;;;25.10;84.00;;;;;;5094043;28;20369;-82
2022/08/07 12:27:45;;;;;;;2.50;1.92;;;25.20;84.20;;;;;;5093657;28;20048;-82
2022/08/07 12:30:12;;;;;;;3.05;1.95;;;25.30;83.40;;;;;;5091866;28;20044;-84
2022/08/07 12:32:51;;;;;;;;;;;25.40;83.70;;;;;;5093531;28;20062;-83
2022/08/07 12:35:18;;;;;;;4.95;2.08;;;25.40;81.40;;;;;;5093847;28;19927;-83
2022/08/07 12:37:48;;;;;;;3.30;1.63;;;25.60;83.90;;;;;;5075822;28;20431;-83
2022/08/07 12:40:19;;;;;;;3.38;1.95;;;25.50;83.00;;;;;;5093472;28;20048;-83
2022/08/07 12:42:46;;;;;;;3.42;2.03;;;25.50;82.80;;;;;;5093638;28;20040;-83
2022/08/07 12:45:17;;;;;;;3.03;1.90;;;25.60;84.10;;;;;;5092367;28;20051;-83
2022/08/07 12:48:15;;;;;;;3.33;1.80;;;25.80;84.50;;;;;;5092958;28;20063;-83
2022/08/07 12:50:44;;;;;;;2.50;1.70;;;26.00;82.40;;;;;;5091565;28;20049;-84
2022/08/07 12:53:18;;;;;;;2.30;1.73;;;26.10;82.60;;;;;;5092324;28;20387;-83
2022/08/07 12:55:53;;;;;;;3.45;2.20;;;26.00;80.80;;;;;;5092587;28;20414;-85
2022/08/07 12:58:20;;;;;;;2.58;1.70;;;26.10;82.20;;;;;;5093996;28;20056;-83
2022/08/07 13:01:22;;;;;;;3.58;1.60;;;26.00;82.60;;;;;;5093438;28;20073;-83
2022/08/07 13:04:06;;;;;;;3.03;1.70;;;26.10;80.50;;;;;;5038240;28;20074;-83
2022/08/07 13:07:09;;;;;;;2.63;1.60;;;25.90;81.80;;;;;;5092439;28;20048;-83
2022/08/07 13:09:53;;;;;;;2.50;1.70;;;25.60;80.50;;;;;;5092270;28;20052;-83
2022/08/07 13:12:32;;;;;;;3.05;1.58;;;25.40;81.50;;;;;;5092240;28;20078;-84
2022/08/07 13:15:16;;;;;;;2.85;1.50;;;25.50;81.60;;;;;;5092238;28;20080;-83
2022/08/07 13:17:50;;;;;;;2.42;1.30;;;25.60;80.30;;;;;;5076538;28;20040;-83
2022/08/07 13:20:50;;;;;;;1.92;1.38;;;25.70;82.20;;;;;;5097263;28;20044;-83
2022/08/07 13:23:34;;;;;;;2.67;1.45;;;25.90;80.20;;;;;;5063637;28;20131;-83
2022/08/07 13:26:26;;;;;;;2.10;1.33;;;26.00;79.10;;;;;;5097324;28;20087;-84
2022/08/07 13:29:14;;;;;;;2.58;1.35;;;26.10;79.00;;;;;;5065487;28;20056;-84
2022/08/07 13:32:13;;;;;;;1.73;1.15;;;26.20;80.00;;;;;;5096445;28;20082;-83